Terminal Aerodrome Forecast
Issued by NWS

Home | Current Version | Previous Version | Text Only | Print | Product List | Glossary On
Versions: 1 2 3 4 5 6 7 8 9 10 11 12 13 14 15 16
000
FTUS44 KMAF 031900 AAA
TAFFST
TAF AMD
KFST 031958Z 0320/0418 13014G24KT P6SM BKN120=

USA.gov is the U.S. government's official web portal to all federal, state and local government web resources and services.